Time;durP1;ratioP1;P1;durP2;ratioP2;P2;SDS_P1;SDS_P2;PMS_P1;PMS_P2;Temp;Humidity;BMP_temperature;BMP_pressure;BME280_temperature;BME280_humidity;BME280_pressure;Samples;Min_cycle;Max_cycle;Signal;HPM_P1;HPM_P2
2023/09/12 00:00:53;;;;;;;7.97;7.13;;;;;;;21.10;nan;99048.94;4952281;28;20482;-77
2023/09/12 00:03:21;;;;;;;8.10;6.67;;;;;;;21.14;nan;99045.75;4952567;28;20312;-78
2023/09/12 00:05:53;;;;;;;11.00;7.95;;;;;;;21.18;nan;99040.88;4949466;28;20953;-78
2023/09/12 00:08:19;;;;;;;11.83;8.03;;;;;;;21.18;nan;99040.88;4950706;28;20231;-79
2023/09/12 00:10:44;;;;;;;13.80;8.00;;;;;;;21.15;nan;99035.88;4954618;28;20769;-79
2023/09/12 00:13:10;;;;;;;7.33;6.40;;;;;;;21.13;nan;99029.88;4954990;28;20200;-78
2023/09/12 00:15:35;;;;;;;10.37;6.97;;;;;;;21.13;nan;99027.22;4950627;28;20670;-78
2023/09/12 00:18:01;;;;;;;10.10;7.80;;;;;;;21.16;nan;99026.84;4952112;28;20592;-78
2023/09/12 00:20:26;;;;;;;12.77;8.40;;;;;;;21.18;nan;99024.84;4954589;28;21154;-78
2023/09/12 00:22:54;;;;;;;9.90;6.13;;;;;;;21.23;nan;99035.00;4949388;28;20188;-78
2023/09/12 00:25:20;;;;;;;10.07;7.10;;;;;;;21.23;nan;99022.47;4952505;28;20429;-78
2023/09/12 00:27:46;;;;;;;6.90;6.20;;;;;;;21.25;nan;99024.94;4937806;28;20467;-79
2023/09/12 00:30:13;;;;;;;9.97;6.47;;;;;;;21.27;nan;99022.91;4952369;28;20430;-78
2023/09/12 00:32:38;;;;;;;8.97;7.37;;;;;;;21.29;nan;99020.91;4953984;28;20615;-79
2023/09/12 00:35:04;;;;;;;9.50;6.83;;;;;;;21.30;nan;99020.72;4956340;28;20466;-78
2023/09/12 00:37:30;;;;;;;11.83;8.30;;;;;;;21.33;nan;99028.38;4957756;28;20585;-78
2023/09/12 00:39:55;;;;;;;7.93;7.10;;;;;;;21.33;nan;99027.53;4951298;28;20287;-78
2023/09/12 00:42:20;;;;;;;9.90;6.93;;;;;;;21.33;nan;99025.72;4957261;28;20278;-78
2023/09/12 00:44:46;;;;;;;8.67;7.50;;;;;;;21.34;nan;99030.03;4957065;28;20189;-78
2023/09/12 00:47:12;;;;;;;7.80;6.63;;;;;;;21.34;nan;99031.88;4938224;28;20674;-78
2023/09/12 00:49:39;;;;;;;9.90;7.50;;;;;;;21.29;nan;99032.41;4951998;28;20259;-78
2023/09/12 00:52:05;;;;;;;7.07;5.60;;;;;;;21.24;nan;99029.47;4954374;28;20462;-78
2023/09/12 00:54:30;;;;;;;12.60;7.60;;;;;;;21.21;nan;99029.81;4957555;28;20536;-78
2023/09/12 00:56:56;;;;;;;8.03;7.33;;;;;;;21.19;nan;99031.84;4953656;28;20805;-79
2023/09/12 00:59:21;;;;;;;8.30;7.03;;;;;;;21.16;nan;99034.88;4954438;28;20221;-78
2023/09/12 01:01:47;;;;;;;9.63;8.10;;;;;;;21.10;nan;99033.75;4957139;28;20665;-78
2023/09/12 01:04:14;;;;;;;7.50;6.80;;;;;;;21.05;nan;99035.28;4938123;28;20768;-78
2023/09/12 01:06:39;;;;;;;7.33;6.37;;;;;;;21.04;nan;99028.31;4954522;28;20542;-78
2023/09/12 01:09:05;;;;;;;12.17;8.40;;;;;;;21.04;nan;99021.13;4953781;28;20204;-78
2023/09/12 01:11:31;;;;;;;9.97;7.50;;;;;;;21.08;nan;99025.06;4956289;28;20654;-78
2023/09/12 01:13:56;;;;;;;9.20;7.60;;;;;;;21.12;nan;99025.56;4956460;28;20212;-78
2023/09/12 01:16:22;;;;;;;10.43;7.90;;;;;;;21.15;nan;99019.88;4934386;28;20225;-78
2023/09/12 01:18:48;;;;;;;8.57;7.40;;;;;;;21.15;nan;99030.53;4935585;28;20324;-78
2023/09/12 01:21:36;;;;;;;7.80;6.87;;;;;;;21.16;nan;99026.84;4950999;28;20199;-79
2023/09/12 01:24:13;;;;;;;14.00;8.70;;;;;;;21.16;nan;99019.66;4955753;28;20827;-78
2023/09/12 01:26:44;;;;;;;8.07;7.27;;;;;;;21.13;nan;99029.88;4957525;28;20475;-78
2023/09/12 01:29:13;;;;;;;9.10;7.33;;;;;;;21.09;nan;99032.09;4953943;28;20607;-78
2023/09/12 01:31:39;;;;;;;9.47;6.40;;;;;;;21.08;nan;99029.59;4940776;28;20465;-78
2023/09/12 01:34:10;;;;;;;8.37;7.40;;;;;;;21.07;nan;99042.13;4933576;28;20453;-78
2023/09/12 01:36:36;;;;;;;10.03;6.40;;;;;;;21.07;nan;99042.13;4933487;28;20494;-78
2023/09/12 01:39:02;;;;;;;9.43;7.10;;;;;;;21.08;nan;99050.97;4952500;28;21239;-77
2023/09/12 01:41:30;;;;;;;7.90;7.07;;;;;;;21.05;nan;99048.66;4938360;28;20430;-77
2023/09/12 01:43:57;;;;;;;8.83;6.13;;;;;;;21.02;nan;99047.16;4955713;28;20208;-79
2023/09/12 01:46:25;;;;;;;8.80;7.57;;;;;;;21.00;nan;99050.00;4955638;28;20433;-78
2023/09/12 01:48:53;;;;;;;11.47;7.20;;;;;;;21.00;nan;99047.31;4936870;28;20464;-78
2023/09/12 01:51:20;;;;;;;10.53;7.00;;;;;;;21.04;nan;99050.50;4954363;28;20439;-77
2023/09/12 01:53:46;;;;;;;8.40;7.10;;;;;;;21.07;nan;99035.94;4937415;28;21243;-78
2023/09/12 01:56:13;;;;;;;11.43;7.10;;;;;;;21.08;nan;99041.09;4954172;28;20470;-77
2023/09/12 01:58:38;;;;;;;11.33;8.33;;;;;;;21.11;nan;99037.25;4936662;28;20524;-78
2023/09/12 02:01:04;;;;;;;8.80;7.13;;;;;;;21.15;nan;99035.88;4939063;28;20445;-77
2023/09/12 02:03:29;;;;;;;9.73;7.50;;;;;;;21.19;nan;99035.31;4938316;28;20180;-78
2023/09/12 02:05:56;;;;;;;10.87;6.90;;;;;;;21.21;nan;99033.31;4935854;28;20211;-78
2023/09/12 02:08:21;;;;;;;10.10;7.97;;;;;;;21.19;nan;99040.66;4953614;28;20516;-78
2023/09/12 02:10:47;;;;;;;8.20;7.13;;;;;;;21.15;nan;99035.88;4956055;28;20447;-78
2023/09/12 02:13:12;;;;;;;8.70;7.10;;;;;;;21.10;nan;99039.09;4949408;28;20252;-78
2023/09/12 02:15:37;;;;;;;7.80;6.70;;;;;;;21.08;nan;99034.94;4952143;28;20226;-79
2023/09/12 02:18:03;;;;;;;11.30;8.30;;;;;;;21.07;nan;99033.28;4936996;28;20215;-78
2023/09/12 02:20:28;;;;;;;11.10;7.77;;;;;;;21.06;nan;99048.44;4958091;28;20208;-78
2023/09/12 02:22:54;;;;;;;7.90;7.13;;;;;;;21.06;nan;99052.97;4958704;28;20212;-77
2023/09/12 02:25:19;;;;;;;9.70;8.10;;;;;;;21.06;nan;99052.97;4955005;28;20306;-78
2023/09/12 02:27:47;;;;;;;13.37;8.27;;;;;;;21.06;nan;99055.63;4956544;28;20219;-78
2023/09/12 02:30:12;;;;;;;10.30;7.77;;;;;;;21.01;nan;99050.84;4957973;28;20434;-79
2023/09/12 02:32:38;;;;;;;10.00;7.73;;;;;;;20.96;nan;99050.56;4942746;28;20488;-79
2023/09/12 02:35:04;;;;;;;10.97;7.63;;;;;;;20.93;nan;99053.59;4940959;28;20827;-79
2023/09/12 02:37:29;;;;;;;10.15;8.25;;;;;;;20.93;nan;99054.41;4958487;28;20450;-78
2023/09/12 02:39:55;;;;;;;9.33;6.80;;;;;;;20.89;nan;99049.59;4956540;28;20581;-78
2023/09/12 02:42:20;;;;;;;10.90;7.93;;;;;;;20.87;nan;99049.75;4957589;28;20192;-78
2023/09/12 02:44:47;;;;;;;12.17;8.67;;;;;;;20.86;nan;99050.78;4941390;28;20557;-78
2023/09/12 02:47:13;;;;;;;10.67;7.80;;;;;;;20.88;nan;99061.28;4940130;28;20525;-78
2023/09/12 02:49:39;;;;;;;7.13;6.40;;;;;;;20.87;nan;99055.09;4940255;28;20459;-78
2023/09/12 02:52:04;;;;;;;9.13;6.80;;;;;;;20.87;nan;99052.44;4958152;28;20993;-78
2023/09/12 02:54:30;;;;;;;9.83;7.53;;;;;;;20.87;nan;99060.44;4956640;28;20223;-79
2023/09/12 02:56:55;;;;;;;7.10;6.40;;;;;;;20.86;nan;99057.97;4959496;28;20233;-79
2023/09/12 02:59:21;;;;;;;7.67;6.87;;;;;;;20.86;nan;99057.97;4939280;28;20573;-78
2023/09/12 03:01:46;;;;;;;10.63;7.53;;;;;;;20.87;nan;99048.94;4941072;28;20203;-78
2023/09/12 03:04:12;;;;;;;9.20;7.73;;;;;;;20.89;nan;99054.94;4954640;28;20500;-78
2023/09/12 03:06:38;;;;;;;9.23;8.40;;;;;;;20.80;nan;99043.47;4940837;28;20204;-79
2023/09/12 03:09:03;;;;;;;8.13;7.20;;;;;;;20.73;nan;99053.19;4941659;28;20433;-78
2023/09/12 03:11:29;;;;;;;8.80;7.90;;;;;;;20.70;nan;99049.03;4940373;28;20211;-78
2023/09/12 03:13:55;;;;;;;11.53;8.27;;;;;;;20.68;nan;99045.72;4941382;28;20295;-79
2023/09/12 03:16:21;;;;;;;11.77;8.00;;;;;;;20.68;nan;99036.88;4957884;28;20796;-78
2023/09/12 03:18:47;;;;;;;8.43;7.00;;;;;;;20.67;nan;99043.22;4940627;28;20283;-78
2023/09/12 03:21:12;;;;;;;9.33;8.07;;;;;;;20.62;nan;99040.25;4940405;28;20987;-78
2023/09/12 03:23:38;;;;;;;10.90;8.00;;;;;;;20.60;nan;99034.25;4941181;28;20192;-79
2023/09/12 03:26:04;;;;;;;8.63;6.77;;;;;;;20.55;nan;99040.97;4937251;28;20537;-79
2023/09/12 03:28:31;;;;;;;11.03;8.77;;;;;;;20.55;nan;99035.63;4941894;28;20217;-78
2023/09/12 03:31:11;;;;;;;8.73;7.53;;;;;;;20.54;nan;99033.13;4938015;28;20465;-78
2023/09/12 03:33:37;;;;;;;8.53;7.63;;;;;;;20.50;nan;99026.47;4940579;28;20448;-78
2023/09/12 03:36:03;;;;;;;8.70;7.20;;;;;;;20.43;nan;99020.97;4939568;28;20447;-78
2023/09/12 03:38:28;;;;;;;11.03;7.80;;;;;;;20.40;nan;99020.50;4957247;28;20211;-78
2023/09/12 03:40:54;;;;;;;8.53;7.73;;;;;;;20.38;nan;99012.69;4939323;28;21050;-78
2023/09/12 03:43:19;;;;;;;9.17;8.17;;;;;;;20.38;nan;99015.34;4957391;28;20302;-78
2023/09/12 03:45:44;;;;;;;10.53;9.20;;;;;;;20.39;nan;99014.34;4940448;28;20215;-78
2023/09/12 03:48:10;;;;;;;12.27;8.30;;;;;;;20.42;nan;99013.19;4941721;28;20228;-79
2023/09/12 03:50:35;;;;;;;8.90;7.40;;;;;;;20.43;nan;99015.66;4958105;28;20207;-79
2023/09/12 03:53:01;;;;;;;9.73;7.00;;;;;;;20.45;nan;99012.81;4956173;28;20409;-79
2023/09/12 03:55:28;;;;;;;9.43;7.83;;;;;;;20.46;nan;99015.28;4939666;28;20444;-79
2023/09/12 03:57:53;;;;;;;8.37;6.90;;;;;;;20.46;nan;99007.28;4959907;28;20560;-78
2023/09/12 04:00:19;;;;;;;7.50;6.80;;;;;;;20.46;nan;99009.97;4983354;23;20332;-77
2023/09/12 04:02:47;;;;;;;10.03;7.90;;;;;;;20.45;nan;99018.16;4951371;28;20557;-77
2023/09/12 04:05:14;;;;;;;9.60;8.60;;;;;;;20.44;nan;99024.47;4966142;28;20452;-77
2023/09/12 04:07:39;;;;;;;11.80;8.03;;;;;;;20.41;nan;99031.00;4968752;28;20246;-77
2023/09/12 04:10:06;;;;;;;12.67;7.90;;;;;;;20.36;nan;99029.84;4967409;28;20460;-78
2023/09/12 04:12:39;;;;;;;12.60;9.70;;;;;;;20.29;nan;99013.75;4967879;28;20309;-77
2023/09/12 04:15:25;;;;;;;12.40;11.20;;;;;;;20.27;nan;99015.75;4981112;28;20486;-78
2023/09/12 04:18:01;;;;;;;13.10;11.70;;;;;;;20.27;nan;99019.22;4968068;28;20433;-77
2023/09/12 04:20:29;;;;;;;11.30;9.07;;;;;;;20.29;nan;99014.56;4967586;28;20474;-78
2023/09/12 04:22:55;;;;;;;12.33;9.47;;;;;;;20.31;nan;99017.91;4970066;28;20685;-78
2023/09/12 04:25:22;;;;;;;11.27;9.20;;;;;;;20.29;nan;99016.41;4973713;28;20450;-78
2023/09/12 04:27:52;;;;;;;16.90;9.03;;;;;;;20.23;nan;99017.94;4973687;28;20447;-78
2023/09/12 04:30:18;;;;;;;8.50;7.70;;;;;;;20.16;nan;99024.97;4973262;28;20446;-78
2023/09/12 04:32:48;;;;;;;10.30;8.50;;;;;;;20.11;nan;99021.97;4973405;28;20436;-78
2023/09/12 04:35:19;;;;;;;9.30;8.07;;;;;;;20.05;nan;99025.34;4973007;28;21414;-78
2023/09/12 04:37:46;;;;;;;11.50;10.10;;;;;;;20.00;nan;99023.19;4965798;28;20490;-78
2023/09/12 04:40:11;;;;;;;11.97;8.77;;;;;;;19.99;nan;99021.53;4963775;28;21375;-78
2023/09/12 04:42:37;;;;;;;14.03;9.10;;;;;;;20.01;nan;99024.00;4964663;28;20463;-77
2023/09/12 04:45:03;;;;;;;10.30;8.00;;;;;;;20.05;nan;99022.69;4962474;28;20198;-78
2023/09/12 04:47:28;;;;;;;15.10;9.03;;;;;;;20.08;nan;99033.00;4963930;28;20197;-78
2023/09/12 04:49:54;;;;;;;9.70;8.63;;;;;;;20.08;nan;99023.16;4965383;28;20454;-78
2023/09/12 04:52:23;;;;;;;11.60;9.70;;;;;;;20.11;nan;99020.13;4987449;28;20204;-78
2023/09/12 04:54:49;;;;;;;11.37;9.63;;;;;;;20.10;nan;99009.66;4969241;28;20448;-78
2023/09/12 04:57:18;;;;;;;11.17;8.37;;;;;;;20.00;nan;99003.69;4966366;28;20501;-78
2023/09/12 04:59:47;;;;;;;10.43;8.60;;;;;;;20.03;nan;99009.50;4966634;28;20445;-78
2023/09/12 05:02:12;;;;;;;11.23;9.47;;;;;;;20.07;nan;99016.16;4963881;28;20550;-78
2023/09/12 05:04:38;;;;;;;10.73;9.37;;;;;;;20.11;nan;99028.13;4957256;28;20213;-78
2023/09/12 05:07:03;;;;;;;10.47;8.97;;;;;;;20.13;nan;99025.31;4957932;28;20763;-78
2023/09/12 05:09:29;;;;;;;11.40;8.30;;;;;;;20.16;nan;99034.78;4962281;28;20218;-78
2023/09/12 05:11:54;;;;;;;12.00;9.60;;;;;;;20.21;nan;99040.44;4959281;28;20218;-78
2023/09/12 05:15:20;;;;;;;12.10;7.97;;;;;;;20.26;nan;99038.09;4972262;28;20218;-81
2023/09/12 05:17:46;;;;;;;12.33;9.70;;;;;;;20.29;nan;99037.75;4953899;28;20219;-80
2023/09/12 05:20:11;;;;;;;12.40;9.23;;;;;;;20.27;nan;99037.06;4964048;28;20530;-80
2023/09/12 05:22:37;;;;;;;13.20;11.27;;;;;;;20.23;nan;99043.78;4963416;28;20293;-81
2023/09/12 05:25:02;;;;;;;11.70;8.60;;;;;;;20.22;nan;99044.75;4964701;28;20210;-80
2023/09/12 05:27:28;;;;;;;12.60;9.50;;;;;;;20.23;nan;99047.25;4962642;28;20223;-80
2023/09/12 05:29:53;;;;;;;10.17;8.07;;;;;;;20.27;nan;99051.22;4962705;28;20225;-81
2023/09/12 05:32:19;;;;;;;15.87;9.10;;;;;;;20.32;nan;99034.72;4965659;28;20191;-81
2023/09/12 05:34:49;;;;;;;10.57;9.00;;;;;;;20.35;nan;99039.69;4968559;28;20429;-81
2023/09/12 05:37:16;;;;;;;12.47;9.67;;;;;;;20.36;nan;99046.72;4967482;28;20969;-80
2023/09/12 05:39:41;;;;;;;12.73;8.60;;;;;;;20.37;nan;99043.03;4966314;28;20535;-80
2023/09/12 05:42:07;;;;;;;10.03;8.37;;;;;;;20.42;nan;99046.00;4949824;28;20203;-80
2023/09/12 05:44:32;;;;;;;12.97;9.10;;;;;;;20.49;nan;99046.13;4964512;28;20690;-81
2023/09/12 05:47:06;;;;;;;9.40;8.00;;;;;;;20.55;nan;99046.31;4962040;28;20281;-80
2023/09/12 05:49:34;;;;;;;11.27;8.70;;;;;;;20.62;nan;99050.94;4972755;28;20578;-80
2023/09/12 05:51:59;;;;;;;11.97;8.50;;;;;;;20.68;nan;99052.88;4963893;28;20456;-80
2023/09/12 05:54:26;;;;;;;11.33;9.23;;;;;;;20.72;nan;99057.72;4961921;28;20447;-80
2023/09/12 05:56:53;;;;;;;15.93;10.27;;;;;;;20.80;nan;99053.34;4964197;28;20447;-81
2023/09/12 05:59:18;;;;;;;11.53;8.70;;;;;;;20.83;nan;99056.47;4963710;28;20227;-80
2023/09/12 06:01:45;;;;;;;9.70;8.23;;;;;;;20.88;nan;99056.78;4962721;28;21267;-81
2023/09/12 06:04:10;;;;;;;13.38;10.32;;;;;;;20.93;nan;99054.41;4961845;28;20523;-80
2023/09/12 06:06:36;;;;;;;12.73;10.67;;;;;;;20.97;nan;99055.69;4962749;28;20434;-80
2023/09/12 06:09:02;;;;;;;13.40;8.67;;;;;;;21.05;nan;99051.31;4959328;28;20295;-80
2023/09/12 06:11:27;;;;;;;10.30;9.30;;;;;;;21.13;nan;99053.91;4963410;28;20193;-80
2023/09/12 06:13:52;;;;;;;9.90;8.90;;;;;;;21.23;nan;99041.16;4962813;28;20905;-80
2023/09/12 06:16:18;;;;;;;13.03;8.10;;;;;;;21.33;nan;99051.56;4961207;28;20219;-79
2023/09/12 06:18:44;;;;;;;12.17;8.80;;;;;;;21.40;nan;99042.69;4958299;28;20208;-79
2023/09/12 06:21:09;;;;;;;16.17;10.47;;;;;;;21.55;nan;99058.78;4962807;28;20196;-80
2023/09/12 06:23:34;;;;;;;13.80;9.30;;;;;;;21.67;nan;99052.97;4960877;28;20204;-80
2023/09/12 06:26:00;;;;;;;14.50;9.03;;;;;;;21.78;nan;99066.72;4961940;28;20203;-80
2023/09/12 06:28:27;;;;;;;13.37;9.40;;;;;;;21.85;nan;99059.63;4962769;28;20712;-80
2023/09/12 06:30:52;;;;;;;10.73;9.47;;;;;;;21.91;nan;99057.25;4960174;28;20255;-80
2023/09/12 06:33:18;;;;;;;10.93;9.70;;;;;;;21.97;nan;99057.31;4963471;28;20458;-80
2023/09/12 06:35:43;;;;;;;10.50;7.80;;;;;;;22.05;nan;99059.91;4962132;28;20223;-79
2023/09/12 06:38:09;;;;;;;10.13;8.10;;;;;;;22.17;nan;99054.06;4962025;28;20200;-80
2023/09/12 06:40:34;;;;;;;11.40;9.90;;;;;;;22.29;nan;99066.00;4962063;28;20573;-79
2023/09/12 06:42:59;;;;;;;9.27;7.83;;;;;;;22.40;nan;99062.03;4962326;28;20433;-79
2023/09/12 06:45:25;;;;;;;12.40;8.57;;;;;;;22.51;nan;99064.22;4962181;28;20681;-79
2023/09/12 06:47:50;;;;;;;10.50;9.50;;;;;;;22.59;nan;99056.06;4961262;28;20201;-79
2023/09/12 06:50:15;;;;;;;14.00;9.00;;;;;;;22.67;nan;99057.81;4960049;28;20263;-79
2023/09/12 06:52:41;;;;;;;11.00;9.57;;;;;;;22.78;nan;99062.66;4962985;28;20204;-80
2023/09/12 06:55:09;;;;;;;8.40;7.57;;;;;;;22.87;nan;99058.88;4961133;28;20235;-79
2023/09/12 06:57:34;;;;;;;11.90;8.77;;;;;;;22.99;nan;99055.72;4964495;28;20223;-79
2023/09/12 07:00:00;;;;;;;15.70;8.50;;;;;;;23.09;nan;99046.34;4967785;28;20487;-82
2023/09/12 07:02:26;;;;;;;11.57;9.80;;;;;;;23.21;nan;99052.00;4969629;28;20196;-81
2023/09/12 07:04:52;;;;;;;10.40;7.70;;;;;;;23.33;nan;99054.97;4968700;28;20611;-81
2023/09/12 07:07:17;;;;;;;11.67;8.10;;;;;;;23.51;nan;99059.88;4969333;28;20456;-81
2023/09/12 07:09:43;;;;;;;10.50;8.50;;;;;;;23.58;nan;99050.84;4969569;28;20208;-82
2023/09/12 07:12:09;;;;;;;18.67;8.10;;;;;;;23.59;nan;99044.47;4970864;28;20207;-82
2023/09/12 07:14:37;;;;;;;11.07;8.00;;;;;;;23.63;nan;99043.06;4976815;28;20208;-82
2023/09/12 07:17:06;;;;;;;12.83;7.97;;;;;;;23.66;nan;99046.38;4977379;28;20443;-82
2023/09/12 07:19:31;;;;;;;9.33;7.87;;;;;;;23.69;nan;99038.75;4969054;28;20482;-82
2023/09/12 07:21:56;;;;;;;9.53;8.53;;;;;;;;;;4966890;28;20456;-82
2023/09/12 07:24:26;;;;;;;9.53;8.63;;;;;;;23.79;nan;99047.31;4967998;28;20184;-82
2023/09/12 07:26:51;;;;;;;14.10;8.10;;;;;;;23.83;nan;99047.75;4967005;28;20216;-82
2023/09/12 07:29:16;;;;;;;8.20;7.40;;;;;;;23.86;nan;99047.34;4965375;28;20473;-82
2023/09/12 07:31:45;;;;;;;10.30;8.97;;;;;;;23.88;nan;99056.03;4967309;28;20199;-82
2023/09/12 07:34:11;;;;;;;9.33;7.53;;;;;;;23.92;nan;99067.19;4967664;28;20561;-82
2023/09/12 07:36:37;;;;;;;12.20;8.00;;;;;;;23.92;nan;99065.31;4967495;28;20565;-82
2023/09/12 07:39:04;;;;;;;17.27;14.07;;;;;;;23.96;nan;99061.25;4964961;28;20968;-82
2023/09/12 07:41:30;;;;;;;23.70;18.60;;;;;;;24.02;nan;99065.81;4967895;28;20214;-82
2023/09/12 07:43:55;;;;;;;16.20;14.60;;;;;;;24.17;nan;99067.53;4966560;28;20495;-82
2023/09/12 07:46:21;;;;;;;18.57;16.60;;;;;;;24.62;nan;99062.59;4969536;28;20483;-82
2023/09/12 07:48:46;;;;;;;15.57;13.70;;;;;;;25.48;nan;99065.44;4968417;28;20210;-81
2023/09/12 07:51:17;;;;;;;26.03;19.93;;;;;;;26.43;nan;99057.78;4969106;28;20209;-82
2023/09/12 07:53:43;;;;;;;14.83;13.33;;;;;;;27.43;nan;99054.53;4970298;28;20215;-82
2023/09/12 07:56:10;;;;;;;17.77;15.23;;;;;;;28.09;nan;99049.56;4976110;28;20841;-83
2023/09/12 07:58:35;;;;;;;14.63;13.13;;;;;;;28.61;nan;99050.81;4976296;28;20471;-82
2023/09/12 08:01:06;;;;;;;12.70;9.73;;;;;;;29.31;nan;99060.22;4973893;28;20566;-82
2023/09/12 08:03:32;;;;;;;16.77;14.07;;;;;;;30.02;nan;99061.06;4976309;28;20449;-84
2023/09/12 08:05:58;;;;;;;18.93;16.80;;;;;;;30.71;nan;99054.91;4961437;28;20452;-84
2023/09/12 08:08:23;;;;;;;11.00;9.00;;;;;;;31.42;nan;99055.38;4959526;28;20817;-84
2023/09/12 08:10:49;;;;;;;12.37;11.03;;;;;;;32.07;nan;99051.19;4961294;28;20240;-84
2023/09/12 08:13:14;;;;;;;17.13;11.60;;;;;;;32.65;nan;99052.44;4960022;28;20608;-84
2023/09/12 08:15:40;;;;;;;10.67;9.13;;;;;;;33.09;nan;99055.09;4961546;28;20227;-84
2023/09/12 08:18:05;;;;;;;8.90;8.00;;;;;;;33.37;nan;99059.38;4962316;28;20769;-84
2023/09/12 08:20:30;;;;;;;8.80;7.90;;;;;;;33.77;nan;99068.16;4959471;28;20223;-84
2023/09/12 08:22:56;;;;;;;15.47;8.77;;;;;;;34.18;nan;99060.22;4960833;28;20235;-84
2023/09/12 08:25:21;;;;;;;9.80;8.83;;;;;;;34.39;nan;99067.41;4957859;28;20259;-83
2023/09/12 08:27:47;;;;;;;9.63;8.53;;;;;;;34.50;nan;99063.59;4959164;28;20208;-83
2023/09/12 08:30:13;;;;;;;10.83;9.70;;;;;;;34.63;nan;99056.88;4959183;28;20756;-84
2023/09/12 08:32:43;;;;;;;10.63;9.13;;;;;;;34.69;nan;99055.78;4958630;28;20652;-84
2023/09/12 08:35:14;;;;;;;10.47;7.97;;;;;;;34.79;nan;99055.00;4958206;28;20582;-84
2023/09/12 08:37:41;;;;;;;9.67;8.70;;;;;;;34.97;nan;99053.63;4961707;28;20809;-84
2023/09/12 08:40:08;;;;;;;9.10;8.20;;;;;;;35.07;nan;99044.69;4959553;28;20452;-84
2023/09/12 08:42:40;;;;;;;9.67;8.67;;;;;;;34.92;nan;99049.00;4959642;28;20459;-84
2023/09/12 08:45:13;;;;;;;9.53;7.50;;;;;;;34.64;nan;99057.69;4958768;28;20546;-84
2023/09/12 08:47:43;;;;;;;8.60;7.63;;;;;;;34.55;nan;99055.44;4961150;28;20442;-84
2023/09/12 08:50:13;;;;;;;9.77;8.33;;;;;;;34.43;nan;99060.34;4959834;28;20509;-85
2023/09/12 08:52:46;;;;;;;8.50;7.70;;;;;;;34.35;nan;99069.00;4967262;28;20463;-85
2023/09/12 08:55:12;;;;;;;11.63;7.60;;;;;;;34.30;nan;99066.28;4962460;28;20607;-84
2023/09/12 08:57:43;;;;;;;8.40;7.60;;;;;;;34.22;nan;99066.78;4968693;28;20451;-85
2023/09/12 09:00:12;;;;;;;8.47;7.60;;;;;;;34.08;nan;99064.53;4968310;28;20543;-85
2023/09/12 09:02:39;;;;;;;11.90;7.40;;;;;;;33.90;nan;99073.13;4965747;28;20503;-85
2023/09/12 09:05:10;;;;;;;8.03;7.23;;;;;;;33.63;nan;99071.31;4962048;28;20459;-85
2023/09/12 09:07:40;;;;;;;7.80;6.87;;;;;;;33.42;nan;99066.78;4963024;28;20537;-84
2023/09/12 09:10:08;;;;;;;7.13;6.43;;;;;;;33.25;nan;99070.47;4961870;28;20543;-85
2023/09/12 09:12:34;;;;;;;15.40;7.43;;;;;;;33.02;nan;99070.78;4962164;28;20468;-85
2023/09/12 09:15:27;;;;;;;11.73;10.50;;;;;;;32.80;nan;99074.34;4962924;28;20518;-85
2023/09/12 09:18:00;;;;;;;10.93;8.30;;;;;;;32.55;nan;99065.94;4963934;28;21199;-84
2023/09/12 09:20:37;;;;;;;9.33;8.03;;;;;;;32.39;nan;99054.84;4962064;28;20562;-84
2023/09/12 09:23:10;;;;;;;8.13;7.10;;;;;;;32.13;nan;99064.56;4964543;28;20454;-85
2023/09/12 09:25:39;;;;;;;9.53;8.03;;;;;;;32.04;nan;99057.13;4967457;28;20495;-84
2023/09/12 09:28:15;;;;;;;7.77;7.00;;;;;;;31.98;nan;99058.94;4967538;28;20592;-84
2023/09/12 09:30:45;;;;;;;13.43;7.47;;;;;;;32.07;nan;99051.19;4966412;28;20459;-84
2023/09/12 09:33:12;;;;;;;14.03;8.80;;;;;;;32.20;nan;99052.69;4967239;28;20793;-84
2023/09/12 09:35:40;;;;;;;8.03;6.73;;;;;;;32.25;nan;99050.88;4966485;28;20472;-84
2023/09/12 09:38:07;;;;;;;9.47;7.80;;;;;;;32.24;nan;99037.53;4967490;28;20486;-84
2023/09/12 09:40:34;;;;;;;8.00;7.03;;;;;;;32.17;nan;99046.69;4965932;28;20474;-83
2023/09/12 09:43:01;;;;;;;7.80;7.03;;;;;;;32.05;nan;99045.16;4966908;28;20535;-83
2023/09/12 09:45:28;;;;;;;8.27;7.23;;;;;;;31.95;nan;99045.88;4969289;28;20830;-84
2023/09/12 09:47:58;;;;;;;7.70;7.00;;;;;;;31.96;nan;99037.44;4966922;28;21178;-84
2023/09/12 09:50:23;;;;;;;11.00;7.70;;;;;;;32.12;nan;99043.09;4966628;28;20478;-84
2023/09/12 09:52:54;;;;;;;9.00;7.33;;;;;;;32.23;nan;99031.28;4968754;28;20960;-84
2023/09/12 09:55:20;;;;;;;6.93;6.33;;;;;;;32.28;nan;99034.06;4966790;28;20213;-84
2023/09/12 09:57:45;;;;;;;9.33;7.90;;;;;;;32.31;nan;99036.25;4968744;28;20463;-84
2023/09/12 10:00:14;;;;;;;7.60;6.90;;;;;;;32.29;nan;99032.97;4967238;28;20569;-81
2023/09/12 10:02:42;;;;;;;7.03;6.33;;;;;;;32.30;nan;99025.66;4975419;28;20426;-83
2023/09/12 10:05:09;;;;;;;8.70;7.80;;;;;;;32.30;nan;99028.38;4977891;28;20480;-83
2023/09/12 10:07:38;;;;;;;9.63;7.23;;;;;;;32.31;nan;99032.72;4977750;28;21067;-82
2023/09/12 10:10:04;;;;;;;9.63;7.37;;;;;;;32.48;nan;99029.94;4975935;28;20562;-82
2023/09/12 10:12:40;;;;;;;10.70;7.20;;;;;;;32.70;nan;99019.03;4976515;28;20487;-81
2023/09/12 10:15:07;;;;;;;9.60;7.50;;;;;;;32.82;nan;99016.97;4974542;28;20483;-83
2023/09/12 10:17:37;;;;;;;6.87;6.17;;;;;;;32.99;nan;99017.66;4976398;28;20487;-81
2023/09/12 10:20:09;;;;;;;7.53;6.20;;;;;;;32.91;nan;99020.88;4975215;28;20542;-82
2023/09/12 10:22:56;;;;;;;6.70;6.10;;;;;;;32.93;nan;99017.91;4973563;28;20542;-81
2023/09/12 10:25:23;;;;;;;6.17;5.57;;;;;;;32.95;nan;99004.88;4972461;28;21080;-81
2023/09/12 10:27:49;;;;;;;6.13;5.53;;;;;;;33.02;nan;99009.03;4978407;28;20933;-82
2023/09/12 10:30:16;;;;;;;6.77;5.87;;;;;;;33.18;nan;98999.09;4974831;28;20526;-82
2023/09/12 10:32:45;;;;;;;8.03;6.20;;;;;;;33.24;nan;98998.06;4975136;28;20773;-82
2023/09/12 10:35:10;;;;;;;6.53;5.93;;;;;;;33.36;nan;98999.78;4973921;28;20463;-81
2023/09/12 10:37:42;;;;;;;6.10;5.50;;;;;;;33.38;nan;98995.72;4976437;28;20499;-79
2023/09/12 10:40:09;;;;;;;7.23;5.47;;;;;;;33.41;nan;98992.44;4975334;28;20204;-82
2023/09/12 10:42:35;;;;;;;9.73;6.40;;;;;;;33.40;nan;99000.88;4975294;28;20755;-82
2023/09/12 10:45:03;;;;;;;5.90;5.33;;;;;;;33.40;nan;99001.69;4964923;28;20447;-82
2023/09/12 10:47:29;;;;;;;5.23;4.80;;;;;;;33.47;nan;98991.41;4966864;28;20938;-82
2023/09/12 10:49:56;;;;;;;6.50;5.50;;;;;;;33.56;nan;98985.50;4967045;28;20622;-85
2023/09/12 10:52:28;;;;;;;5.30;4.73;;;;;;;33.72;nan;98993.47;4963962;28;20509;-85
2023/09/12 10:54:54;;;;;;;8.80;4.97;;;;;;;33.79;nan;98989.72;4962820;28;20493;-83
2023/09/12 10:57:20;;;;;;;5.50;5.00;;;;;;;33.84;nan;98981.56;4966403;28;20460;-83
2023/09/12 11:00:01;;;;;;;4.87;4.47;;;;;;;33.84;nan;98984.28;4964523;28;20483;-82
2023/09/12 11:02:31;;;;;;;5.37;4.87;;;;;;;33.87;nan;98981.84;4967024;28;20243;-79
2023/09/12 11:05:04;;;;;;;5.77;5.20;;;;;;;33.88;nan;98986.19;4970814;28;20819;-84
2023/09/12 11:07:36;;;;;;;5.17;4.67;;;;;;;33.93;nan;98985.41;4981077;28;20454;-84
2023/09/12 11:10:19;;;;;;;5.87;5.27;;;;;;;33.98;nan;98979.97;4981514;28;20464;-83
2023/09/12 11:12:53;;;;;;;4.80;4.20;;;;;;;34.03;nan;98977.28;4973166;28;20478;-83
2023/09/12 11:15:23;;;;;;;7.00;4.97;;;;;;;34.01;nan;98979.44;4975977;28;20486;-84
2023/09/12 11:17:59;;;;;;;6.57;5.07;;;;;;;33.95;nan;98980.53;4974077;28;20463;-84
2023/09/12 11:20:24;;;;;;;5.53;4.97;;;;;;;33.92;nan;98976.41;4972033;28;20463;-83
2023/09/12 11:22:50;;;;;;;5.30;4.80;;;;;;;33.82;nan;98976.38;4970399;28;20462;-84
2023/09/12 11:25:26;;;;;;;5.03;4.47;;;;;;;33.80;nan;98977.72;4971288;28;20204;-83
2023/09/12 11:27:51;;;;;;;6.03;5.00;;;;;;;33.77;nan;98983.69;4972575;28;20263;-85
2023/09/12 11:30:24;;;;;;;6.33;5.50;;;;;;;33.76;nan;98976.63;4977873;28;20816;-83
2023/09/12 11:32:53;;;;;;;6.07;5.50;;;;;;;33.65;nan;98982.00;4972377;28;20195;-83
2023/09/12 11:35:26;;;;;;;4.93;4.40;;;;;;;33.50;nan;98977.25;4974516;28;20594;-85
2023/09/12 11:37:57;;;;;;;5.93;5.33;;;;;;;33.37;nan;98980.44;4978127;28;20448;-83
2023/09/12 11:40:25;;;;;;;5.43;4.93;;;;;;;33.26;nan;98984.16;4976647;28;21059;-85
2023/09/12 11:42:51;;;;;;;6.77;4.70;;;;;;;33.18;nan;98977.31;4979424;28;20823;-86
2023/09/12 11:45:21;;;;;;;5.50;5.00;;;;;;;33.20;nan;98983.31;4972475;28;20466;-83
2023/09/12 11:47:47;;;;;;;5.67;5.27;;;;;;;33.24;nan;98981.72;4965011;28;20502;-82